Time;durP1;ratioP1;P1;durP2;ratioP2;P2;SDS_P1;SDS_P2;PMS_P1;PMS_P2;Temp;Humidity;BMP_temperature;BMP_pressure;BME280_temperature;BME280_humidity;BME280_pressure;Samples;Min_cycle;Max_cycle;Signal;HPM_P1;HPM_P2
2023/12/17 00:00:22;;;;;;;;;67.25;52.75;;;;;5.47;77.34;103740.63;4998070;28;45389;-48
2023/12/17 00:02:47;;;;;;;;;66.75;51.50;;;;;5.47;77.09;103728.28;4997876;28;49262;-47
2023/12/17 00:05:13;;;;;;;;;62.75;49.50;;;;;5.53;77.21;103734.31;4998173;28;45410;-48
2023/12/17 00:07:38;;;;;;;;;64.00;48.75;;;;;5.53;77.18;103729.03;4997568;28;45466;-48
2023/12/17 00:10:04;;;;;;;;;71.75;49.25;;;;;5.53;77.27;103726.41;4997897;28;46505;-48
2023/12/17 00:12:29;;;;;;;;;65.00;48.00;;;;;5.52;77.42;103733.47;4997943;28;45500;-49
2023/12/17 00:14:54;;;;;;;;;58.25;45.50;;;;;5.52;76.83;103736.09;4997821;28;45405;-48
2023/12/17 00:17:21;;;;;;;;;63.50;48.25;;;;;5.44;77.12;103723.09;4998069;28;45271;-48
2023/12/17 00:19:46;;;;;;;;;65.25;49.00;;;;;5.37;77.49;103734.72;4997506;28;46387;-49
2023/12/17 00:22:11;;;;;;;;;57.75;45.25;;;;;5.38;77.29;103738.22;4996358;28;45438;-49
2023/12/17 00:24:36;;;;;;;;;60.00;44.25;;;;;5.40;77.10;103746.97;4997826;28;45430;-48
2023/12/17 00:27:02;;;;;;;;;58.00;45.00;;;;;5.40;77.29;103737.28;4996731;28;45397;-49
2023/12/17 00:29:28;;;;;;;;;58.00;42.25;;;;;5.45;76.98;103739.81;4997338;28;46240;-47
2023/12/17 00:31:53;;;;;;;;;59.75;46.00;;;;;5.47;76.64;103746.75;4997470;28;45188;-51
2023/12/17 00:34:18;;;;;;;;;51.00;45.00;;;;;5.44;76.68;103743.34;4997235;28;45375;-49
2023/12/17 00:36:43;;;;;;;;;66.50;48.75;;;;;5.42;76.50;103751.31;4997652;28;45289;-52
2023/12/17 00:39:09;;;;;;;;;53.50;43.00;;;;;5.30;76.96;103750.75;4997151;28;46302;-48
2023/12/17 00:41:34;;;;;;;;;63.75;44.75;;;;;5.34;77.43;103760.31;4997591;28;45342;-47
2023/12/17 00:43:59;;;;;;;;;54.25;45.25;;;;;5.36;76.45;103762.03;4997288;28;45772;-48
2023/12/17 00:46:25;;;;;;;;;57.50;45.00;;;;;5.38;76.66;103752.28;4997433;28;45763;-49
2023/12/17 00:48:50;;;;;;;;;55.50;45.00;;;;;5.38;76.72;103751.41;4997151;28;45837;-47
2023/12/17 00:51:16;;;;;;;;;58.50;45.00;;;;;5.35;76.45;103740.94;4997474;28;45171;-46
2023/12/17 00:53:41;;;;;;;;;48.75;40.25;;;;;5.34;76.21;103744.47;4997346;28;45450;-49
2023/12/17 00:56:06;;;;;;;;;59.75;39.00;;;;;5.30;76.10;103746.31;4997379;28;45435;-46
2023/12/17 00:58:32;;;;;;;;;53.50;47.50;;;;;5.25;76.76;103753.50;4996999;28;46395;-48
2023/12/17 01:00:57;;;;;;;;;48.50;36.25;;;;;5.23;76.53;103760.59;4996818;28;45453;-48
2023/12/17 01:03:22;;;;;;;;;60.00;44.50;;;;;5.27;76.94;103762.28;4997192;28;45782;-49
2023/12/17 01:05:48;;;;;;;;;50.50;37.75;;;;;5.24;76.56;103755.28;4997419;28;45418;-51
2023/12/17 01:08:13;;;;;;;;;52.75;41.75;;;;;5.20;77.50;103752.75;4997006;28;47648;-50
2023/12/17 01:10:38;;;;;;;;;51.75;42.25;;;;;5.29;76.70;103776.28;4997621;28;45539;-48
2023/12/17 01:13:04;;;;;;;;;59.00;44.50;;;;;5.31;76.53;103773.59;4997405;28;47556;-50
2023/12/17 01:15:29;;;;;;;;;52.25;43.00;;;;;5.30;75.99;103778.00;4998224;28;45512;-50
2023/12/17 01:17:54;;;;;;;;;53.50;42.75;;;;;5.32;75.83;103778.84;4997212;28;52699;-49
2023/12/17 01:20:20;;;;;;;;;44.75;39.25;;;;;5.34;76.46;103792.00;4996278;28;45416;-50
2023/12/17 01:22:46;;;;;;;;;53.50;41.50;;;;;5.31;76.28;103785.03;4997549;28;45401;-51
2023/12/17 01:25:11;;;;;;;;;18.50;17.00;;;;;5.30;76.65;103788.56;4997559;28;45446;-47
2023/12/17 01:27:36;;;;;;;;;61.25;47.75;;;;;5.28;76.50;103790.38;4997270;28;46230;-46
2023/12/17 01:30:02;;;;;;;;;58.50;43.00;;;;;5.29;76.86;103794.75;4996740;28;45386;-49
2023/12/17 01:32:27;;;;;;;;;66.00;45.50;;;;;5.28;76.68;103786.88;4996889;28;45811;-46
2023/12/17 01:34:52;;;;;;;;;50.50;42.00;;;;;5.27;77.12;103786.03;4995629;28;45515;-49
2023/12/17 01:37:18;;;;;;;;;48.25;36.25;;;;;5.20;76.92;103780.00;4996725;28;45477;-47
2023/12/17 01:39:43;;;;;;;;;56.25;41.00;;;;;5.28;76.31;103777.19;4996658;28;45307;-48
2023/12/17 01:42:08;;;;;;;;;55.75;43.00;;;;;5.29;76.67;103780.69;4996850;28;45289;-48
2023/12/17 01:44:33;;;;;;;;;51.25;43.25;;;;;5.23;76.00;103779.94;4997087;28;45318;-49
2023/12/17 01:46:59;;;;;;;;;48.75;40.75;;;;;5.27;76.28;103778.09;4996598;28;46032;-49
2023/12/17 01:49:25;;;;;;;;;53.50;42.00;;;;;5.23;76.42;103776.44;4996526;28;45291;-47
2023/12/17 01:51:51;;;;;;;;;51.25;40.75;;;;;5.19;76.58;103769.50;4996486;28;45292;-52
2023/12/17 01:54:17;;;;;;;;;46.25;43.00;;;;;5.16;76.23;103769.56;4996625;28;45500;-55
2023/12/17 01:56:43;;;;;;;;;53.25;43.25;;;;;5.13;76.46;103778.41;4996300;28;46554;-48
2023/12/17 01:59:09;;;;;;;;;51.00;42.00;;;;;5.12;76.03;103770.56;5012006;28;45464;-49
2023/12/17 02:01:34;;;;;;;;;48.00;39.75;;;;;4.98;75.71;103752.41;4996955;28;45438;-50
2023/12/17 02:04:00;;;;;;;;;46.75;40.25;;;;;5.05;75.78;103774.22;4997889;28;45768;-53
2023/12/17 02:06:26;;;;;;;;;48.50;39.75;;;;;4.99;76.73;103780.53;4996797;28;45321;-48
2023/12/17 02:08:51;;;;;;;;;46.00;38.00;;;;;4.94;76.91;103777.13;4996093;28;45505;-48
2023/12/17 02:11:16;;;;;;;;;52.00;39.25;;;;;4.91;76.66;103785.97;4996413;28;45644;-49
2023/12/17 02:13:41;;;;;;;;;47.50;35.25;;;;;4.84;76.63;103781.75;4996593;28;45612;-50
2023/12/17 02:16:07;;;;;;;;;38.75;37.50;;;;;4.81;77.49;103781.81;4995945;28;54857;-52
2023/12/17 02:18:32;;;;;;;;;45.25;41.50;;;;;4.80;76.51;103768.66;4996007;28;45378;-51
2023/12/17 02:20:59;;;;;;;;;47.50;42.00;;;;;4.79;76.95;103769.56;4996308;28;45382;-48
2023/12/17 02:23:25;;;;;;;;;54.25;40.00;;;;;4.82;77.65;103767.72;4995172;28;45392;-51
2023/12/17 02:25:50;;;;;;;;;40.00;36.00;;;;;4.82;77.98;103762.47;4996156;28;45996;-51
2023/12/17 02:28:15;;;;;;;;;40.50;36.75;;;;;4.82;77.55;103762.47;4995773;28;49292;-45
2023/12/17 02:30:41;;;;;;;;;45.75;37.25;;;;;4.80;78.05;103756.34;4996096;28;45489;-48
2023/12/17 02:33:06;;;;;;;;;37.25;33.00;;;;;4.79;77.83;103748.47;5015015;28;45619;-48
2023/12/17 02:35:31;;;;;;;;;41.25;39.25;;;;;4.77;77.84;103751.16;4999206;28;46276;-48
2023/12/17 02:37:57;;;;;;;;;40.25;34.75;;;;;4.70;77.51;103742.50;4999317;28;45430;-49
2023/12/17 02:40:22;;;;;;;;;54.00;43.00;;;;;4.73;77.69;103741.56;4999545;28;45386;-51
2023/12/17 02:42:47;;;;;;;;;40.25;33.00;;;;;4.74;77.71;103738.03;4999660;28;45385;-52
2023/12/17 02:45:13;;;;;;;;;48.00;40.25;;;;;4.72;77.66;103734.56;5014327;28;46986;-52
2023/12/17 02:47:38;;;;;;;;;40.25;35.00;;;;;4.65;77.37;103723.28;4999335;28;45361;-49
2023/12/17 02:50:04;;;;;;;;;45.75;37.00;;;;;4.51;77.61;103722.75;4999253;28;45335;-50
2023/12/17 02:52:30;;;;;;;;;53.50;36.75;;;;;4.60;77.62;103729.59;4999406;28;45831;-51
2023/12/17 02:54:55;;;;;;;;;40.25;39.25;;;;;4.59;77.78;103726.03;4999253;28;46139;-52
2023/12/17 02:57:24;;;;;;;;;29.25;27.25;;;;;4.58;78.09;103720.81;4999072;28;45604;-46
2023/12/17 02:59:52;;;;;;;;;45.00;37.25;;;;;4.56;77.39;103723.50;4998971;28;45347;-47
2023/12/17 03:02:17;;;;;;;;;48.75;38.75;;;;;4.48;76.65;103705.22;4999158;28;45625;-49
2023/12/17 03:04:42;;;;;;;;;36.00;27.25;;;;;4.45;77.38;103699.16;4999503;28;45430;-45
2023/12/17 03:07:08;;;;;;;;;33.50;28.25;;;;;4.35;77.17;103693.22;4999147;28;45345;-45
2023/12/17 03:09:33;;;;;;;;;35.00;26.00;;;;;4.37;76.88;103695.81;4997783;28;45538;-48
2023/12/17 03:11:58;;;;;;;;;19.50;12.00;;;;;4.32;77.86;103693.28;4999283;28;45384;-50
2023/12/17 03:14:24;;;;;;;;;44.75;37.75;;;;;4.22;77.84;103689.13;4998833;28;47139;-52
2023/12/17 03:16:49;;;;;;;;;39.00;34.75;;;;;4.14;78.47;103688.41;4998559;28;45303;-51
2023/12/17 03:19:15;;;;;;;;;32.00;32.00;;;;;4.22;77.79;103689.13;4998884;28;45496;-50
2023/12/17 03:21:40;;;;;;;;;38.75;29.75;;;;;4.20;78.00;103686.50;4999121;28;45308;-52
2023/12/17 03:24:06;;;;;;;;;38.50;31.50;;;;;4.14;77.49;103677.88;4998878;28;45640;-51
2023/12/17 03:26:32;;;;;;;;;42.25;33.75;;;;;4.13;77.54;103681.41;4998594;28;45339;-52
2023/12/17 03:28:57;;;;;;;;;33.25;27.50;;;;;4.10;78.19;103684.97;4998743;28;45463;-51
2023/12/17 03:31:22;;;;;;;;;37.25;28.25;;;;;4.09;78.32;103679.72;4998776;28;45358;-51
2023/12/17 03:33:48;;;;;;;;;40.50;35.25;;;;;4.03;79.30;103678.09;4997189;28;46817;-51
2023/12/17 03:36:15;;;;;;;;;33.75;32.50;;;;;3.99;79.97;103673.78;4998565;28;45485;-53
2023/12/17 03:38:43;;;;;;;;;41.00;31.00;;;;;3.91;78.60;103667.81;4998682;28;45298;-50
2023/12/17 03:41:28;;;;;;;;;27.75;22.75;;;;;3.95;79.67;103674.75;4998620;28;45441;-48
2023/12/17 03:43:55;;;;;;;;;34.75;29.75;;;;;3.94;79.00;103678.28;4997189;28;45401;-51
2023/12/17 03:46:21;;;;;;;;;35.50;30.50;;;;;3.88;79.19;103670.53;4998284;28;45560;-52
2023/12/17 03:48:47;;;;;;;;;35.25;32.25;;;;;3.87;78.58;103671.41;4998214;28;45429;-52
2023/12/17 03:51:12;;;;;;;;;31.50;28.50;;;;;3.87;79.69;103663.50;4998462;28;45466;-53
2023/12/17 03:53:38;;;;;;;;;32.50;23.25;;;;;3.90;78.85;103668.72;4998322;28;46316;-53
2023/12/17 03:56:10;;;;;;;;;33.25;27.50;;;;;3.82;79.29;103652.22;4998428;28;45473;-51
2023/12/17 03:58:37;;;;;;;;;30.25;23.25;;;;;3.74;79.08;103652.38;4998659;28;45321;-53
2023/12/17 04:01:03;;;;;;;;;30.50;28.00;;;;;3.63;79.84;103649.97;4998098;28;45407;-51
2023/12/17 04:03:29;;;;;;;;;33.25;27.50;;;;;3.76;79.35;103653.22;4997873;28;46580;-51
2023/12/17 04:05:56;;;;;;;;;42.00;28.25;;;;;3.73;79.29;103645.38;4998164;28;45483;-53
2023/12/17 04:08:21;;;;;;;;;34.50;26.75;;;;;3.82;79.77;103652.22;4998109;28;45353;-52
2023/12/17 04:10:46;;;;;;;;;30.00;23.00;;;;;3.79;79.29;103660.16;4998209;28;45380;-51
2023/12/17 04:13:11;;;;;;;;;30.25;24.50;;;;;3.68;79.75;103648.09;4997663;28;49198;-53
2023/12/17 04:15:37;;;;;;;;;36.25;29.00;;;;;3.68;79.78;103648.09;4997650;28;49252;-53
2023/12/17 04:18:02;;;;;;;;;33.25;22.50;;;;;3.62;80.29;103642.94;4998008;28;45368;-46
2023/12/17 04:20:28;;;;;;;;;34.00;26.00;;;;;3.65;80.29;103642.88;4998304;28;45301;-53
2023/12/17 04:22:53;;;;;;;;;10.75;5.50;;;;;3.71;79.95;103648.03;4997398;28;45482;-51
2023/12/17 04:25:18;;;;;;;;;33.50;27.50;;;;;3.79;79.78;103649.63;4997890;28;46088;-52
2023/12/17 04:27:44;;;;;;;;;20.50;16.75;;;;;3.78;80.47;103645.28;4997971;28;45376;-54
2023/12/17 04:30:10;;;;;;;;;27.00;23.50;;;;;3.72;80.53;103627.84;4997952;28;45414;-52
2023/12/17 04:32:36;;;;;;;;;34.25;27.50;;;;;3.73;80.47;103643.59;4997557;28;45314;-53
2023/12/17 04:35:03;;;;;;;;;31.50;26.00;;;;;3.67;80.72;103640.25;4997302;28;45563;-52
2023/12/17 04:37:28;;;;;;;;;36.25;29.25;;;;;3.64;79.81;103635.91;4997673;28;45383;-53
2023/12/17 04:39:54;;;;;;;;;32.25;29.50;;;;;3.51;80.47;103629.16;4997630;28;45407;-54
2023/12/17 04:42:19;;;;;;;;;26.75;22.50;;;;;3.41;80.10;103636.38;4997436;28;46972;-51
2023/12/17 04:44:44;;;;;;;;;25.50;21.25;;;;;3.42;79.84;103634.59;4997571;28;45453;-49
2023/12/17 04:47:10;;;;;;;;;34.75;22.75;;;;;3.48;80.51;103634.47;4997345;28;45390;-52
2023/12/17 04:49:36;;;;;;;;;24.25;21.00;;;;;3.51;80.17;103631.78;4997806;28;45354;-49
2023/12/17 04:52:01;;;;;;;;;22.00;16.50;;;;;3.53;78.65;103635.22;4996039;28;46022;-50
2023/12/17 04:54:26;;;;;;;;;24.25;19.00;;;;;3.50;79.31;103636.19;4997188;28;45298;-50
2023/12/17 04:56:54;;;;;;;;;20.25;18.25;;;;;3.38;79.44;103630.28;4997240;28;47375;-54
2023/12/17 04:59:20;;;;;;;;;18.25;18.00;;;;;3.33;80.13;103622.47;4997549;28;45291;-51
2023/12/17 05:01:46;;;;;;;;;22.50;19.75;;;;;3.36;79.55;103634.69;4997003;28;46041;-52
2023/12/17 05:04:11;;;;;;;;;18.00;18.00;;;;;3.35;80.49;103635.59;4996917;28;46960;-53
2023/12/17 05:06:36;;;;;;;;;27.25;21.75;;;;;3.33;80.85;103633.00;4997455;28;45415;-52
2023/12/17 05:09:02;;;;;;;;;27.25;21.75;;;;;3.32;80.77;103630.38;4996832;28;45571;-52
2023/12/17 05:11:27;;;;;;;;;23.50;21.00;;;;;3.27;80.76;103624.34;4997208;28;47112;-52
2023/12/17 05:13:52;;;;;;;;;25.75;21.50;;;;;3.29;81.58;103625.16;4997094;28;45395;-53
2023/12/17 05:16:18;;;;;;;;;20.25;16.25;;;;;3.33;80.70;103619.84;4996791;28;45355;-53
2023/12/17 05:18:43;;;;;;;;;34.50;26.00;;;;;3.35;80.84;103625.94;4997449;28;45502;-53
2023/12/17 05:21:08;;;;;;;;;25.75;20.50;;;;;3.32;80.66;103614.59;4996822;28;48701;-53
2023/12/17 05:23:33;;;;;;;;;28.25;19.50;;;;;3.34;79.89;103610.19;4995998;28;45267;-53
2023/12/17 05:25:59;;;;;;;;;22.75;17.75;;;;;3.42;81.10;103632.81;4997654;28;45689;-53
2023/12/17 05:28:24;;;;;;;;;34.50;23.00;;;;;3.42;80.63;103629.34;4997069;28;45363;-53
2023/12/17 05:30:49;;;;;;;;;26.50;24.50;;;;;3.46;80.27;103631.00;4997114;28;45312;-52
2023/12/17 05:33:15;;;;;;;;;22.75;20.50;;;;;3.43;80.82;103637.19;4996760;28;45522;-53
2023/12/17 05:35:42;;;;;;;;;29.75;25.00;;;;;3.45;79.93;103645.91;4996804;28;45341;-54
2023/12/17 05:38:07;;;;;;;;;24.50;19.25;;;;;3.40;80.43;103637.22;4997818;28;45318;-53
2023/12/17 05:40:33;;;;;;;;;24.25;22.25;;;;;3.34;80.83;103647.91;4995593;28;45416;-50
2023/12/17 05:42:58;;;;;;;;;21.75;19.75;;;;;3.29;80.20;103639.22;4995244;28;45735;-53
2023/12/17 05:45:23;;;;;;;;;25.25;17.00;;;;;3.28;80.13;103642.72;4995585;28;45471;-51
2023/12/17 05:47:48;;;;;;;;;26.75;21.75;;;;;3.30;81.45;103650.59;4996585;28;45365;-53
2023/12/17 05:50:14;;;;;;;;;22.00;15.75;;;;;3.30;80.85;103648.84;4996573;28;49580;-52
2023/12/17 05:52:40;;;;;;;;;20.00;16.50;;;;;3.31;80.36;103641.81;4996742;28;45312;-50
2023/12/17 05:55:07;;;;;;;;;29.75;20.00;;;;;3.21;80.37;103635.88;4996893;28;45427;-45
2023/12/17 05:57:33;;;;;;;;;26.25;20.25;;;;;3.19;81.68;103653.44;4996675;28;45430;-48
2023/12/17 05:59:58;;;;;;;;;25.00;20.00;;;;;3.07;81.55;103617.69;4996339;28;47146;-48
2023/12/17 06:02:24;;;;;;;;;29.25;22.00;;;;;3.16;80.28;103632.44;4996247;28;45216;-49
2023/12/17 06:04:49;;;;;;;;;22.00;17.50;;;;;3.17;81.44;103642.94;4996419;28;45347;-47
2023/12/17 06:07:14;;;;;;;;;22.50;21.25;;;;;3.18;81.90;103646.44;4999028;28;45303;-49
2023/12/17 06:09:40;;;;;;;;;20.25;14.50;;;;;3.18;80.60;103643.81;4999675;28;45440;-48
2023/12/17 06:12:06;;;;;;;;;23.25;19.00;;;;;3.27;81.75;103645.41;4999961;28;45411;-47
2023/12/17 06:14:31;;;;;;;;;20.75;17.00;;;;;3.19;80.66;103630.59;4999969;28;45364;-48
2023/12/17 06:16:57;;;;;;;;;34.25;24.25;;;;;3.23;81.60;103644.56;4999660;28;45414;-54
2023/12/17 06:19:23;;;;;;;;;31.00;19.75;;;;;3.19;81.87;103645.53;4999833;28;45313;-51
2023/12/17 06:21:49;;;;;;;;;24.00;19.00;;;;;3.21;81.41;103646.38;4999701;28;45445;-51
2023/12/17 06:24:14;;;;;;;;;26.50;20.50;;;;;3.20;81.53;103640.25;4999721;28;45342;-53
2023/12/17 06:26:39;;;;;;;;;28.25;20.75;;;;;3.28;81.57;103640.09;4999958;28;45294;-49
2023/12/17 06:29:05;;;;;;;;;24.25;20.75;;;;;3.32;82.19;103644.41;4999462;28;46169;-47
2023/12/17 06:31:30;;;;;;;;;20.50;18.75;;;;;3.27;81.19;103621.72;4999682;28;45382;-49
2023/12/17 06:33:56;;;;;;;;;25.50;18.00;;;;;3.42;80.47;103640.72;4999386;28;45471;-48
2023/12/17 06:36:22;;;;;;;;;24.25;20.00;;;;;3.49;80.82;103654.59;4999754;28;45499;-48
2023/12/17 06:38:47;;;;;;;;;23.75;21.75;;;;;3.52;80.51;103637.91;4999302;28;46125;-47
2023/12/17 06:41:13;;;;;;;;;22.50;19.50;;;;;3.50;80.28;103643.22;4999338;28;45363;-48
2023/12/17 06:43:42;;;;;;;;;24.00;19.50;;;;;3.48;80.71;103647.63;4999626;28;45504;-46
2023/12/17 06:46:07;;;;;;;;;29.00;20.75;;;;;3.37;81.16;103620.63;4999633;28;45369;-48
2023/12/17 06:48:33;;;;;;;;;23.75;18.25;;;;;3.49;81.09;103629.16;4998958;28;45988;-49
2023/12/17 06:51:03;;;;;;;;;20.25;17.00;;;;;3.48;80.94;103623.94;4999178;28;45346;-50
2023/12/17 06:53:29;;;;;;;;;30.75;22.25;;;;;3.60;79.69;103636.84;4999264;28;45270;-50
2023/12/17 06:55:55;;;;;;;;;19.25;16.75;;;;;3.57;80.44;103634.28;4999454;28;45169;-48
2023/12/17 06:58:20;;;;;;;;;21.25;18.00;;;;;3.44;80.03;103617.84;4997702;28;46815;-47
2023/12/17 07:00:46;;;;;;;;;23.25;20.25;;;;;3.58;80.84;103630.78;4998952;28;45393;-49
2023/12/17 07:03:11;;;;;;;;;23.50;18.00;;;;;3.53;80.48;103635.22;4999097;28;45407;-51
2023/12/17 07:05:36;;;;;;;;;20.25;19.25;;;;;3.45;80.86;103651.16;4999411;28;45357;-48
2023/12/17 07:08:02;;;;;;;;;19.50;18.25;;;;;3.39;81.54;103650.44;4998822;28;47340;-48
2023/12/17 07:10:27;;;;;;;;;26.50;22.00;;;;;3.37;81.53;103644.31;4997597;28;45386;-47
2023/12/17 07:12:52;;;;;;;;;25.00;23.00;;;;;3.35;81.01;103652.25;4998948;28;45542;-47
2023/12/17 07:15:18;;;;;;;;;29.50;17.50;;;;;3.32;81.38;103641.78;4999084;28;45386;-49
2023/12/17 07:17:44;;;;;;;;;26.50;22.25;;;;;3.24;81.05;103641.94;4998573;28;46990;-48
2023/12/17 07:20:10;;;;;;;;;32.75;21.25;;;;;3.35;81.86;103652.25;4999157;28;45882;-45
2023/12/17 07:22:36;;;;;;;;;20.00;18.50;;;;;3.32;81.84;103639.13;4999117;28;45377;-45
2023/12/17 07:25:02;;;;;;;;;26.50;17.75;;;;;3.28;81.48;103647.13;4998988;28;45370;-52
2023/12/17 07:27:28;;;;;;;;;31.50;20.25;;;;;3.21;81.54;103630.59;4998604;28;47764;-46
2023/12/17 07:29:53;;;;;;;;;25.25;22.75;;;;;3.25;82.64;103641.03;4998675;28;45330;-52
2023/12/17 07:32:18;;;;;;;;;27.75;23.50;;;;;3.33;81.84;103640.00;4998791;28;45338;-50
2023/12/17 07:34:44;;;;;;;;;33.75;21.75;;;;;3.34;81.47;103624.22;4998541;28;45287;-54
2023/12/17 07:37:09;;;;;;;;;22.75;17.00;;;;;3.21;81.62;103604.28;4998504;28;45387;-53
2023/12/17 07:39:34;;;;;;;;;26.50;23.00;;;;;3.43;81.95;103629.28;4998507;28;45302;-49
2023/12/17 07:42:00;;;;;;;;;27.25;18.00;;;;;3.31;81.85;103613.72;4998542;28;45338;-50
2023/12/17 07:44:27;;;;;;;;;22.00;19.75;;;;;3.32;81.20;103627.75;4998742;28;45334;-50
2023/12/17 07:46:52;;;;;;;;;27.50;14.00;;;;;3.35;80.16;103623.31;4998260;28;45252;-51
2023/12/17 07:49:18;;;;;;;;;20.75;18.75;;;;;3.34;81.03;103628.59;4997006;28;45551;-50
2023/12/17 07:51:44;;;;;;;;;25.00;19.25;;;;;3.33;81.08;103629.47;4998443;28;45413;-50
2023/12/17 07:54:09;;;;;;;;;30.25;20.25;;;;;3.29;81.89;103636.59;4998060;28;45397;-51
2023/12/17 07:56:35;;;;;;;;;28.50;22.00;;;;;3.33;82.09;103621.59;4996462;28;47117;-47
2023/12/17 07:59:00;;;;;;;;;22.75;16.25;;;;;3.17;81.61;103613.16;4996199;28;45412;-48
2023/12/17 08:01:30;;;;;;;;;28.25;18.25;;;;;3.31;81.28;103631.28;4997755;28;45584;-47
2023/12/17 08:03:57;;;;;;;;;16.00;15.50;;;;;3.36;81.10;103634.69;4998325;28;45416;-47
2023/12/17 08:06:23;;;;;;;;;20.50;11.00;;;;;3.29;81.25;103596.22;4997949;28;46204;-47
2023/12/17 08:08:49;;;;;;;;;27.50;16.50;;;;;3.43;81.38;103625.78;4997714;28;45474;-49
2023/12/17 08:11:15;;;;;;;;;19.50;16.75;;;;;3.47;80.26;103632.72;4996708;28;45343;-47
2023/12/17 08:13:40;;;;;;;;;22.75;17.50;;;;;3.53;80.73;103619.44;4998167;28;45442;-47
2023/12/17 08:16:06;;;;;;;;;26.25;19.25;;;;;3.55;79.88;103620.28;4997922;28;46336;-51
2023/12/17 08:18:31;;;;;;;;;17.25;15.00;;;;;3.43;79.96;103610.00;4997568;28;45437;-48
2023/12/17 08:20:57;;;;;;;;;21.00;16.75;;;;;3.54;80.35;103628.19;4998069;28;45351;-51
2023/12/17 08:23:23;;;;;;;;;24.00;19.25;;;;;3.55;79.58;103629.97;4998135;28;45370;-48
2023/12/17 08:25:48;;;;;;;;;17.50;12.00;;;;;3.44;80.81;103638.03;4997816;28;45453;-51
2023/12/17 08:28:13;;;;;;;;;17.00;13.75;;;;;3.29;80.81;103626.06;4993070;28;45180;-46
2023/12/17 08:30:39;;;;;;;;;20.00;17.50;;;;;3.17;80.63;103640.31;4989216;28;45481;-49
2023/12/17 08:33:05;;;;;;;;;24.50;19.75;;;;;3.15;81.05;103628.06;4994156;28;45461;-49
2023/12/17 08:35:31;;;;;;;;;20.25;17.25;;;;;3.13;81.26;103628.09;4994118;28;46213;-48
2023/12/17 08:38:03;;;;;;;;;29.50;18.00;;;;;3.10;81.45;103641.31;4991840;28;45646;-48
2023/12/17 08:40:28;;;;;;;;;23.25;14.25;;;;;3.08;82.11;103637.00;4994036;28;45440;-48
2023/12/17 08:42:54;;;;;;;;;18.75;15.75;;;;;3.09;81.75;103628.19;4992263;28;45520;-48
2023/12/17 08:45:19;;;;;;;;;18.50;16.50;;;;;2.74;82.00;103556.94;4994300;28;46181;-47
2023/12/17 08:47:44;;;;;;;;;22.00;19.75;;;;;3.31;81.49;103633.91;4994172;28;45463;-48
2023/12/17 08:50:10;;;;;;;;;19.25;14.75;;;;;3.39;81.28;103634.66;4993853;28;45546;-47
2023/12/17 08:52:36;;;;;;;;;22.50;16.00;;;;;3.48;80.81;103631.81;4994505;28;45326;-48
2023/12/17 08:55:02;;;;;;;;;20.25;15.75;;;;;3.43;80.31;103610.00;4993912;28;46080;-47
2023/12/17 08:57:27;;;;;;;;;18.25;13.50;;;;;3.56;80.29;103629.06;4993698;28;45613;-49
2023/12/17 08:59:53;;;;;;;;;30.25;22.00;;;;;3.63;79.51;103625.41;4994117;28;45409;-47
2023/12/17 09:02:20;;;;;;;;;23.50;17.75;;;;;3.63;79.90;103634.16;4994438;28;45500;-49
2023/12/17 09:04:48;;;;;;;;;21.50;17.00;;;;;3.54;80.51;103628.19;4993430;28;47930;-49
2023/12/17 09:07:13;;;;;;;;;18.50;15.50;;;;;3.61;80.31;103632.44;4993906;28;45428;-45
2023/12/17 09:09:38;;;;;;;;;33.75;25.25;;;;;3.69;80.94;103626.13;4994191;28;45511;-46
2023/12/17 09:12:04;;;;;;;;;27.75;21.00;;;;;3.62;80.03;103608.72;4994062;28;45552;-47
2023/12/17 09:14:30;;;;;;;;;31.50;23.75;;;;;3.62;80.18;103619.25;4993525;28;46364;-49
2023/12/17 09:16:55;;;;;;;;;27.50;17.00;;;;;3.69;80.26;103620.00;4993771;28;45471;-47
2023/12/17 09:19:20;;;;;;;;;28.00;17.75;;;;;3.75;80.05;103614.63;4993767;28;46517;-49
2023/12/17 09:21:45;;;;;;;;;19.50;18.75;;;;;3.81;80.56;103624.16;4993532;28;45351;-47
2023/12/17 09:24:11;;;;;;;;;22.25;18.75;;;;;3.88;79.41;103629.25;4994155;28;45351;-48
2023/12/17 09:26:36;;;;;;;;;22.75;19.50;;;;;3.89;79.28;103602.03;4993377;28;45494;-47
2023/12/17 09:29:01;;;;;;;;;17.00;16.00;;;;;4.09;79.06;103627.94;4993676;28;46446;-46
2023/12/17 09:31:27;;;;;;;;;16.50;14.75;;;;;4.11;78.40;103631.38;4993770;28;45505;-48
2023/12/17 09:33:52;;;;;;;;;26.00;21.25;;;;;4.09;79.19;103629.66;4993094;28;46295;-48
2023/12/17 09:36:17;;;;;;;;;22.00;19.00;;;;;4.14;77.59;103633.97;4993622;28;45529;-49
2023/12/17 09:38:43;;;;;;;;;20.75;18.50;;;;;4.31;78.16;103627.44;4994302;28;45432;-47
2023/12/17 09:41:08;;;;;;;;;29.75;21.00;;;;;4.33;77.35;103625.63;4993020;28;45326;-49
2023/12/17 09:43:34;;;;;;;;;25.00;20.75;;;;;4.31;77.42;103630.06;4992814;28;45976;-50
2023/12/17 09:45:59;;;;;;;;;19.75;16.75;;;;;4.28;77.53;103632.78;4992922;28;45790;-51
2023/12/17 09:48:25;;;;;;;;;27.75;19.75;;;;;4.27;78.12;103628.41;4992657;28;45414;-48
2023/12/17 09:50:50;;;;;;;;;25.25;19.25;;;;;4.27;78.38;103625.78;4993544;28;45697;-50
2023/12/17 09:53:15;;;;;;;;;17.50;14.50;;;;;4.19;78.31;103620.69;4993832;28;45440;-49
2023/12/17 09:55:41;;;;;;;;;28.50;19.50;;;;;4.28;78.18;103624.88;4992036;28;45595;-48
2023/12/17 09:58:07;;;;;;;;;29.25;19.25;;;;;4.28;78.02;103622.22;4991670;28;46315;-52
2023/12/17 10:00:33;;;;;;;;;33.25;22.75;;;;;4.15;77.76;103597.94;4993103;28;45524;-51
2023/12/17 10:03:03;;;;;;;;;24.25;20.00;;;;;4.22;77.63;103617.97;4992774;28;46012;-50
2023/12/17 10:05:29;;;;;;;;;21.00;18.25;;;;;4.32;77.99;103629.16;4993104;28;45531;-48
2023/12/17 10:07:55;;;;;;;;;23.00;18.75;;;;;4.37;78.48;103628.16;4992533;28;45294;-47
2023/12/17 10:10:20;;;;;;;;;31.50;20.25;;;;;4.39;78.29;103610.53;4993317;28;45362;-49
2023/12/17 10:12:47;;;;;;;;;34.25;21.00;;;;;4.45;77.12;103626.19;4993129;28;45485;-47
2023/12/17 10:15:13;;;;;;;;;21.25;18.25;;;;;4.46;77.45;103609.47;4995259;28;45431;-51
2023/12/17 10:17:39;;;;;;;;;37.50;22.50;;;;;4.49;77.51;103608.53;4996195;28;45436;-46
2023/12/17 10:20:06;;;;;;;;;25.25;21.75;;;;;4.48;78.02;103606.81;4996287;28;45359;-50
2023/12/17 10:22:31;;;;;;;;;32.00;25.25;;;;;4.53;77.53;103606.72;4995867;28;45323;-49
2023/12/17 10:24:57;;;;;;;;;34.25;27.25;;;;;4.70;77.44;103613.28;4995738;28;45371;-47
2023/12/17 10:27:22;;;;;;;;;34.00;25.25;;;;;4.75;76.82;103600.00;4996167;28;45711;-51
2023/12/17 10:29:52;;;;;;;;;37.50;29.50;;;;;4.79;76.56;103601.63;4996146;28;45317;-53
2023/12/17 10:32:22;;;;;;;;;33.00;25.25;;;;;4.89;77.06;103594.38;4995809;28;46521;-46
2023/12/17 10:34:49;;;;;;;;;28.75;22.75;;;;;5.00;76.71;103587.03;4995368;28;45342;-49
2023/12/17 10:37:18;;;;;;;;;10.00;10.00;;;;;5.08;76.28;103578.91;4995890;28;45384;-48
2023/12/17 10:39:44;;;;;;;;;29.75;25.50;;;;;4.98;76.07;103570.38;4996037;28;45525;-46
2023/12/17 10:42:11;;;;;;;;;25.25;19.25;;;;;5.02;75.46;103572.03;4995762;28;45380;-47
2023/12/17 10:44:38;;;;;;;;;21.50;18.00;;;;;5.00;76.20;103569.41;4995876;28;45319;-45
2023/12/17 10:47:05;;;;;;;;;26.75;22.50;;;;;5.00;75.69;103576.47;4995790;28;45419;-48
2023/12/17 10:49:30;;;;;;;;;25.75;21.50;;;;;4.89;76.32;103547.75;4995721;28;45354;-47
2023/12/17 10:51:59;;;;;;;;;33.75;25.75;;;;;4.97;75.55;103536.97;4995559;28;53212;-47
2023/12/17 10:54:25;;;;;;;;;29.75;21.75;;;;;5.06;75.98;103542.03;4999155;28;45501;-48
2023/12/17 10:56:54;;;;;;;;;28.25;20.50;;;;;5.19;75.40;103540.78;4999191;28;45445;-53
2023/12/17 10:59:31;;;;;;;;;32.75;22.75;;;;;5.28;75.50;103536.16;4999719;28;45402;-45
2023/12/17 11:01:59;;;;;;;;;29.00;23.00;;;;;5.35;74.73;103530.66;4998904;28;45421;-47
2023/12/17 11:04:25;;;;;;;;;30.00;22.00;;;;;5.46;75.03;103538.25;4998856;28;45401;-47
2023/12/17 11:06:51;;;;;;;;;32.00;22.75;;;;;5.69;73.73;103513.81;4998842;28;45538;-50
2023/12/17 11:09:17;;;;;;;;;30.00;23.75;;;;;6.16;72.88;103516.75;4999101;28;45394;-48